sensor_id;sensor_type;location;lat;lon;timestamp;P1;P2;P0
62547;PMS7003;48602;45.192;5.722;2023-07-28T00:01:29;2.50;2.00;1.50
62547;PMS7003;48602;45.192;5.722;2023-07-28T00:03:55;1.00;1.00;1.00
62547;PMS7003;48602;45.192;5.722;2023-07-28T00:06:21;3.80;2.20;1.20
62547;PMS7003;48602;45.192;5.722;2023-07-28T00:08:46;4.00;2.00;2.00
62547;PMS7003;48602;45.192;5.722;2023-07-28T00:11:13;3.00;2.75;2.00
62547;PMS7003;48602;45.192;5.722;2023-07-28T00:13:40;2.60;2.40;2.40
62547;PMS7003;48602;45.192;5.722;2023-07-28T00:16:06;5.20;3.20;2.80
62547;PMS7003;48602;45.192;5.722;2023-07-28T00:18:31;3.25;3.25;3.00
62547;PMS7003;48602;45.192;5.722;2023-07-28T00:20:57;2.25;2.00;1.25
62547;PMS7003;48602;45.192;5.722;2023-07-28T00:23:22;3.00;3.00;2.50
62547;PMS7003;48602;45.192;5.722;2023-07-28T00:25:48;3.00;2.00;2.00
62547;PMS7003;48602;45.192;5.722;2023-07-28T00:28:13;3.00;3.00;3.00
62547;PMS7003;48602;45.192;5.722;2023-07-28T00:30:39;3.00;3.00;2.00
62547;PMS7003;48602;45.192;5.722;2023-07-28T00:33:04;3.00;3.00;2.00
62547;PMS7003;48602;45.192;5.722;2023-07-28T00:35:30;2.25;2.25;2.00
62547;PMS7003;48602;45.192;5.722;2023-07-28T00:37:56;5.00;3.25;2.50
62547;PMS7003;48602;45.192;5.722;2023-07-28T00:40:22;2.50;2.50;2.00
62547;PMS7003;48602;45.192;5.722;2023-07-28T00:42:47;2.40;2.40;2.00
62547;PMS7003;48602;45.192;5.722;2023-07-28T00:45:13;3.50;2.75;2.00
62547;PMS7003;48602;45.192;5.722;2023-07-28T00:47:38;3.00;3.00;3.00
62547;PMS7003;48602;45.192;5.722;2023-07-28T00:50:05;2.20;2.00;1.80
62547;PMS7003;48602;45.192;5.722;2023-07-28T00:52:31;3.40;2.80;2.80
62547;PMS7003;48602;45.192;5.722;2023-07-28T00:54:57;2.00;2.00;2.00
62547;PMS7003;48602;45.192;5.722;2023-07-28T00:57:22;3.00;2.00;2.00
62547;PMS7003;48602;45.192;5.722;2023-07-28T00:59:48;3.00;3.00;3.00
62547;PMS7003;48602;45.192;5.722;2023-07-28T01:02:13;2.75;2.75;2.75
62547;PMS7003;48602;45.192;5.722;2023-07-28T01:04:39;3.25;3.25;2.00
62547;PMS7003;48602;45.192;5.722;2023-07-28T01:07:21;3.00;2.40;2.00
62547;PMS7003;48602;45.192;5.722;2023-07-28T01:10:01;3.00;3.00;2.40
62547;PMS7003;48602;45.192;5.722;2023-07-28T01:12:30;2.00;2.00;2.00
62547;PMS7003;48602;45.192;5.722;2023-07-28T01:14:55;2.00;2.00;2.00
62547;PMS7003;48602;45.192;5.722;2023-07-28T01:17:21;3.00;2.50;1.75
62547;PMS7003;48602;45.192;5.722;2023-07-28T01:19:49;4.00;3.00;3.00
62547;PMS7003;48602;45.192;5.722;2023-07-28T01:24:51;2.40;2.20;2.00
62547;PMS7003;48602;45.192;5.722;2023-07-28T01:27:26;3.00;3.00;2.80
62547;PMS7003;48602;45.192;5.722;2023-07-28T01:29:53;2.00;2.00;2.00
62547;PMS7003;48602;45.192;5.722;2023-07-28T01:32:19;2.75;2.75;2.00
62547;PMS7003;48602;45.192;5.722;2023-07-28T01:34:44;2.00;2.00;2.00
62547;PMS7003;48602;45.192;5.722;2023-07-28T01:37:10;2.25;2.25;2.25
62547;PMS7003;48602;45.192;5.722;2023-07-28T01:39:35;1.00;1.00;1.00
62547;PMS7003;48602;45.192;5.722;2023-07-28T01:42:01;3.50;3.00;2.50
62547;PMS7003;48602;45.192;5.722;2023-07-28T01:44:26;4.25;2.25;2.00
62547;PMS7003;48602;45.192;5.722;2023-07-28T01:46:51;1.25;1.25;1.25
62547;PMS7003;48602;45.192;5.722;2023-07-28T01:49:17;2.00;2.00;1.75
62547;PMS7003;48602;45.192;5.722;2023-07-28T01:51:42;4.00;2.25;2.00
62547;PMS7003;48602;45.192;5.722;2023-07-28T01:54:07;1.75;1.25;1.25
62547;PMS7003;48602;45.192;5.722;2023-07-28T01:56:33;2.00;2.00;1.00
62547;PMS7003;48602;45.192;5.722;2023-07-28T01:58:58;0.00;0.00;0.00
62547;PMS7003;48602;45.192;5.722;2023-07-28T02:01:23;2.00;2.00;2.00
62547;PMS7003;48602;45.192;5.722;2023-07-28T02:03:49;3.00;3.00;3.00
62547;PMS7003;48602;45.192;5.722;2023-07-28T02:06:14;2.00;2.00;2.00
62547;PMS7003;48602;45.192;5.722;2023-07-28T02:08:39;2.00;2.00;2.00
62547;PMS7003;48602;45.192;5.722;2023-07-28T02:11:05;3.25;2.25;2.00
62547;PMS7003;48602;45.192;5.722;2023-07-28T02:13:30;2.00;2.00;2.00
62547;PMS7003;48602;45.192;5.722;2023-07-28T02:15:55;2.00;2.00;1.75
62547;PMS7003;48602;45.192;5.722;2023-07-28T02:18:21;1.75;1.75;1.75
62547;PMS7003;48602;45.192;5.722;2023-07-28T02:20:49;4.00;3.00;3.00
62547;PMS7003;48602;45.192;5.722;2023-07-28T02:23:15;2.00;2.00;2.00
62547;PMS7003;48602;45.192;5.722;2023-07-28T02:25:40;2.75;2.75;2.50
62547;PMS7003;48602;45.192;5.722;2023-07-28T02:28:06;4.50;3.00;2.75
62547;PMS7003;48602;45.192;5.722;2023-07-28T02:30:33;5.00;4.00;3.00
62547;PMS7003;48602;45.192;5.722;2023-07-28T02:32:58;2.00;2.00;2.00
62547;PMS7003;48602;45.192;5.722;2023-07-28T02:35:23;4.25;2.75;2.75
62547;PMS7003;48602;45.192;5.722;2023-07-28T02:37:49;1.00;1.00;0.75
62547;PMS7003;48602;45.192;5.722;2023-07-28T02:40:14;3.00;3.00;2.75
62547;PMS7003;48602;45.192;5.722;2023-07-28T02:42:40;1.00;1.00;1.00
62547;PMS7003;48602;45.192;5.722;2023-07-28T02:45:05;3.50;3.50;2.75
62547;PMS7003;48602;45.192;5.722;2023-07-28T02:47:31;5.00;3.50;3.00
62547;PMS7003;48602;45.192;5.722;2023-07-28T02:49:56;4.00;4.00;3.75
62547;PMS7003;48602;45.192;5.722;2023-07-28T02:52:22;2.50;2.50;2.00
62547;PMS7003;48602;45.192;5.722;2023-07-28T02:54:47;3.00;3.00;3.00
62547;PMS7003;48602;45.192;5.722;2023-07-28T02:57:15;3.00;3.00;3.00
62547;PMS7003;48602;45.192;5.722;2023-07-28T02:59:40;4.75;3.50;3.25
62547;PMS7003;48602;45.192;5.722;2023-07-28T03:02:05;3.00;3.00;3.00
62547;PMS7003;48602;45.192;5.722;2023-07-28T03:04:31;3.00;3.00;3.00
62547;PMS7003;48602;45.192;5.722;2023-07-28T03:06:56;4.00;4.00;3.00
62547;PMS7003;48602;45.192;5.722;2023-07-28T03:09:21;4.00;4.00;3.50
62547;PMS7003;48602;45.192;5.722;2023-07-28T03:11:47;4.75;3.00;3.00
62547;PMS7003;48602;45.192;5.722;2023-07-28T03:14:12;4.00;4.00;3.75
62547;PMS7003;48602;45.192;5.722;2023-07-28T03:16:38;3.50;3.50;3.50
62547;PMS7003;48602;45.192;5.722;2023-07-28T03:19:03;4.75;4.00;4.00
62547;PMS7003;48602;45.192;5.722;2023-07-28T03:21:29;4.00;3.00;3.00
62547;PMS7003;48602;45.192;5.722;2023-07-28T03:23:56;4.00;4.00;3.20
62547;PMS7003;48602;45.192;5.722;2023-07-28T03:26:21;5.25;5.00;4.75
62547;PMS7003;48602;45.192;5.722;2023-07-28T03:28:47;4.00;3.00;2.75
62547;PMS7003;48602;45.192;5.722;2023-07-28T03:31:12;5.00;5.00;4.00
62547;PMS7003;48602;45.192;5.722;2023-07-28T03:33:38;4.00;3.00;2.25
62547;PMS7003;48602;45.192;5.722;2023-07-28T03:36:03;4.50;3.50;2.50
62547;PMS7003;48602;45.192;5.722;2023-07-28T03:38:28;4.00;4.00;4.00
62547;PMS7003;48602;45.192;5.722;2023-07-28T03:40:54;4.00;4.00;3.25
62547;PMS7003;48602;45.192;5.722;2023-07-28T03:43:20;4.25;4.00;3.00
62547;PMS7003;48602;45.192;5.722;2023-07-28T03:45:45;4.20;4.20;3.40
62547;PMS7003;48602;45.192;5.722;2023-07-28T03:48:11;4.50;4.50;4.00
62547;PMS7003;48602;45.192;5.722;2023-07-28T03:50:36;3.00;3.00;3.00
62547;PMS7003;48602;45.192;5.722;2023-07-28T03:53:02;4.75;4.75;4.50
62547;PMS7003;48602;45.192;5.722;2023-07-28T03:55:27;6.25;4.75;3.50
62547;PMS7003;48602;45.192;5.722;2023-07-28T03:57:52;4.00;4.00;3.50
62547;PMS7003;48602;45.192;5.722;2023-07-28T04:00:18;7.00;4.00;3.75
62547;PMS7003;48602;45.192;5.722;2023-07-28T04:02:43;4.25;4.25;4.00
62547;PMS7003;48602;45.192;5.722;2023-07-28T04:05:08;4.00;4.00;4.00
62547;PMS7003;48602;45.192;5.722;2023-07-28T04:07:34;4.75;4.75;4.00
62547;PMS7003;48602;45.192;5.722;2023-07-28T04:10:00;3.25;3.25;3.00
62547;PMS7003;48602;45.192;5.722;2023-07-28T04:12:25;5.75;4.50;3.00
62547;PMS7003;48602;45.192;5.722;2023-07-28T04:14:50;4.00;4.00;4.00
62547;PMS7003;48602;45.192;5.722;2023-07-28T04:17:16;4.25;4.00;4.00
62547;PMS7003;48602;45.192;5.722;2023-07-28T04:19:41;5.50;5.00;4.00
62547;PMS7003;48602;45.192;5.722;2023-07-28T04:22:06;4.25;4.25;4.00
62547;PMS7003;48602;45.192;5.722;2023-07-28T04:24:32;3.00;3.00;3.00
62547;PMS7003;48602;45.192;5.722;2023-07-28T04:26:57;5.00;3.75;3.50
62547;PMS7003;48602;45.192;5.722;2023-07-28T04:29:23;3.25;3.25;2.75
62547;PMS7003;48602;45.192;5.722;2023-07-28T04:31:48;4.00;4.00;3.00
62547;PMS7003;48602;45.192;5.722;2023-07-28T04:34:14;4.25;3.00;3.00
62547;PMS7003;48602;45.192;5.722;2023-07-28T04:36:39;2.75;1.50;1.50
62547;PMS7003;48602;45.192;5.722;2023-07-28T04:39:05;5.00;5.00;4.00
62547;PMS7003;48602;45.192;5.722;2023-07-28T04:41:30;3.75;3.00;3.00
62547;PMS7003;48602;45.192;5.722;2023-07-28T04:43:56;6.75;4.00;3.25
62547;PMS7003;48602;45.192;5.722;2023-07-28T04:46:21;4.75;4.00;4.00
62547;PMS7003;48602;45.192;5.722;2023-07-28T04:48:47;4.75;3.50;3.00
62547;PMS7003;48602;45.192;5.722;2023-07-28T04:51:12;6.00;4.50;3.50
62547;PMS7003;48602;45.192;5.722;2023-07-28T04:53:38;6.00;4.50;4.00
62547;PMS7003;48602;45.192;5.722;2023-07-28T04:56:03;4.25;4.00;3.50
62547;PMS7003;48602;45.192;5.722;2023-07-28T04:58:29;3.75;3.00;3.00
62547;PMS7003;48602;45.192;5.722;2023-07-28T05:00:54;4.75;4.75;3.75
62547;PMS7003;48602;45.192;5.722;2023-07-28T05:03:20;6.75;5.00;4.00
62547;PMS7003;48602;45.192;5.722;2023-07-28T05:05:45;4.50;4.50;4.00
62547;PMS7003;48602;45.192;5.722;2023-07-28T05:08:11;4.00;4.00;3.00
62547;PMS7003;48602;45.192;5.722;2023-07-28T05:10:36;3.50;3.50;2.50
62547;PMS7003;48602;45.192;5.722;2023-07-28T05:13:02;5.00;5.00;4.00
62547;PMS7003;48602;45.192;5.722;2023-07-28T05:15:30;4.40;4.20;3.60
62547;PMS7003;48602;45.192;5.722;2023-07-28T05:17:55;5.00;5.00;4.00
62547;PMS7003;48602;45.192;5.722;2023-07-28T05:20:21;5.50;5.00;3.25
62547;PMS7003;48602;45.192;5.722;2023-07-28T05:22:46;6.50;5.00;4.00
62547;PMS7003;48602;45.192;5.722;2023-07-28T05:25:12;4.50;4.00;3.00
62547;PMS7003;48602;45.192;5.722;2023-07-28T05:27:37;4.00;4.00;2.75
62547;PMS7003;48602;45.192;5.722;2023-07-28T05:30:03;7.00;5.00;4.25
62547;PMS7003;48602;45.192;5.722;2023-07-28T05:32:29;5.00;5.00;3.50
62547;PMS7003;48602;45.192;5.722;2023-07-28T05:34:54;6.25;6.25;6.00
62547;PMS7003;48602;45.192;5.722;2023-07-28T05:37:19;6.00;6.00;4.50
62547;PMS7003;48602;45.192;5.722;2023-07-28T05:39:45;4.00;4.00;3.50
62547;PMS7003;48602;45.192;5.722;2023-07-28T05:42:10;6.00;5.00;4.25
62547;PMS7003;48602;45.192;5.722;2023-07-28T05:44:36;6.25;6.00;4.50
62547;PMS7003;48602;45.192;5.722;2023-07-28T05:47:01;4.50;4.25;4.25
62547;PMS7003;48602;45.192;5.722;2023-07-28T05:49:26;6.75;5.50;5.25
62547;PMS7003;48602;45.192;5.722;2023-07-28T05:51:52;4.50;4.50;4.50
62547;PMS7003;48602;45.192;5.722;2023-07-28T05:54:17;7.00;7.00;5.00
62547;PMS7003;48602;45.192;5.722;2023-07-28T05:56:43;6.00;4.50;4.00
62547;PMS7003;48602;45.192;5.722;2023-07-28T05:59:08;5.00;4.00;3.75
62547;PMS7003;48602;45.192;5.722;2023-07-28T06:01:33;6.00;5.00;4.00
62547;PMS7003;48602;45.192;5.722;2023-07-28T06:03:59;5.25;4.00;3.75
62547;PMS7003;48602;45.192;5.722;2023-07-28T06:06:25;5.25;5.00;4.75
62547;PMS7003;48602;45.192;5.722;2023-07-28T06:08:51;6.00;6.00;5.00
62547;PMS7003;48602;45.192;5.722;2023-07-28T06:11:17;5.25;5.25;4.25
62547;PMS7003;48602;45.192;5.722;2023-07-28T06:13:42;4.50;4.50;4.25
62547;PMS7003;48602;45.192;5.722;2023-07-28T06:16:08;6.60;6.60;5.40
62547;PMS7003;48602;45.192;5.722;2023-07-28T06:18:34;11.00;8.00;6.25
62547;PMS7003;48602;45.192;5.722;2023-07-28T06:20:59;5.00;5.00;4.50
62547;PMS7003;48602;45.192;5.722;2023-07-28T06:23:25;6.75;6.25;5.50
62547;PMS7003;48602;45.192;5.722;2023-07-28T06:25:50;5.75;5.75;4.00
62547;PMS7003;48602;45.192;5.722;2023-07-28T06:28:16;8.00;7.00;6.00
62547;PMS7003;48602;45.192;5.722;2023-07-28T06:30:41;5.75;5.75;5.00
62547;PMS7003;48602;45.192;5.722;2023-07-28T06:33:07;7.75;4.75;4.00
62547;PMS7003;48602;45.192;5.722;2023-07-28T06:35:33;5.00;4.00;4.00
62547;PMS7003;48602;45.192;5.722;2023-07-28T06:37:59;5.50;5.50;4.75
62547;PMS7003;48602;45.192;5.722;2023-07-28T06:40:25;7.40;5.80;4.00
62547;PMS7003;48602;45.192;5.722;2023-07-28T06:42:51;7.25;6.00;5.25
62547;PMS7003;48602;45.192;5.722;2023-07-28T06:45:16;6.25;6.00;5.00
62547;PMS7003;48602;45.192;5.722;2023-07-28T06:47:42;5.00;5.00;5.00
62547;PMS7003;48602;45.192;5.722;2023-07-28T06:50:08;5.00;4.00;4.00
62547;PMS7003;48602;45.192;5.722;2023-07-28T06:52:33;4.00;3.50;3.50
62547;PMS7003;48602;45.192;5.722;2023-07-28T06:54:59;7.00;6.00;4.75
62547;PMS7003;48602;45.192;5.722;2023-07-28T06:57:24;6.25;5.00;5.00
62547;PMS7003;48602;45.192;5.722;2023-07-28T06:59:50;7.00;6.00;5.00
62547;PMS7003;48602;45.192;5.722;2023-07-28T07:02:15;9.00;7.00;5.50
62547;PMS7003;48602;45.192;5.722;2023-07-28T07:04:41;6.00;5.25;5.00
62547;PMS7003;48602;45.192;5.722;2023-07-28T07:07:06;5.50;5.00;5.00
62547;PMS7003;48602;45.192;5.722;2023-07-28T07:09:32;8.25;7.00;4.00
62547;PMS7003;48602;45.192;5.722;2023-07-28T07:11:57;6.75;6.75;5.50
62547;PMS7003;48602;45.192;5.722;2023-07-28T07:14:23;6.00;5.00;4.75
62547;PMS7003;48602;45.192;5.722;2023-07-28T07:16:48;8.50;7.25;5.75
62547;PMS7003;48602;45.192;5.722;2023-07-28T07:19:14;6.25;6.25;5.00
62547;PMS7003;48602;45.192;5.722;2023-07-28T07:21:40;3.40;3.00;2.00
62547;PMS7003;48602;45.192;5.722;2023-07-28T07:24:06;6.00;6.00;5.40
62547;PMS7003;48602;45.192;5.722;2023-07-28T07:26:32;6.00;6.00;4.25
62547;PMS7003;48602;45.192;5.722;2023-07-28T07:28:57;8.50;7.00;6.00
62547;PMS7003;48602;45.192;5.722;2023-07-28T07:31:23;7.50;7.00;5.75
62547;PMS7003;48602;45.192;5.722;2023-07-28T07:33:48;8.25;6.75;5.50
62547;PMS7003;48602;45.192;5.722;2023-07-28T07:36:15;8.20;8.20;6.20
62547;PMS7003;48602;45.192;5.722;2023-07-28T07:38:41;7.00;7.00;6.00
62547;PMS7003;48602;45.192;5.722;2023-07-28T07:41:07;7.00;7.00;5.00
62547;PMS7003;48602;45.192;5.722;2023-07-28T07:43:35;8.00;6.20;6.00
62547;PMS7003;48602;45.192;5.722;2023-07-28T07:46:01;10.75;8.00;5.75
62547;PMS7003;48602;45.192;5.722;2023-07-28T07:48:27;9.00;6.50;5.25
62547;PMS7003;48602;45.192;5.722;2023-07-28T07:50:52;9.00;8.00;7.00
62547;PMS7003;48602;45.192;5.722;2023-07-28T07:53:18;8.00;7.00;6.00
62547;PMS7003;48602;45.192;5.722;2023-07-28T07:55:43;2.50;2.50;2.25
62547;PMS7003;48602;45.192;5.722;2023-07-28T07:58:09;6.00;5.75;4.75
62547;PMS7003;48602;45.192;5.722;2023-07-28T08:00:36;6.00;6.00;5.25
62547;PMS7003;48602;45.192;5.722;2023-07-28T08:03:03;7.60;6.80;5.00
62547;PMS7003;48602;45.192;5.722;2023-07-28T08:05:29;9.00;7.00;6.00
62547;PMS7003;48602;45.192;5.722;2023-07-28T08:07:55;6.50;5.00;4.00
62547;PMS7003;48602;45.192;5.722;2023-07-28T08:10:20;9.50;8.25;7.00
62547;PMS7003;48602;45.192;5.722;2023-07-28T08:12:46;5.25;5.25;4.75
62547;PMS7003;48602;45.192;5.722;2023-07-28T08:15:12;11.40;6.60;5.40
62547;PMS7003;48602;45.192;5.722;2023-07-28T08:17:38;6.25;5.25;4.25
62547;PMS7003;48602;45.192;5.722;2023-07-28T08:20:03;6.75;4.50;4.00
62547;PMS7003;48602;45.192;5.722;2023-07-28T08:22:30;5.60;5.20;4.20
62547;PMS7003;48602;45.192;5.722;2023-07-28T08:24:55;5.00;5.00;3.50
62547;PMS7003;48602;45.192;5.722;2023-07-28T08:27:21;4.50;4.00;4.00
62547;PMS7003;48602;45.192;5.722;2023-07-28T08:29:46;5.25;5.25;4.50
62547;PMS7003;48602;45.192;5.722;2023-07-28T08:32:12;4.50;4.25;3.75
62547;PMS7003;48602;45.192;5.722;2023-07-28T08:34:37;4.00;4.00;3.00
62547;PMS7003;48602;45.192;5.722;2023-07-28T08:37:02;6.00;5.00;4.00
62547;PMS7003;48602;45.192;5.722;2023-07-28T08:39:28;4.75;4.75;4.00
62547;PMS7003;48602;45.192;5.722;2023-07-28T08:42:02;5.00;5.00;3.00
62547;PMS7003;48602;45.192;5.722;2023-07-28T08:44:30;5.60;5.60;5.00
62547;PMS7003;48602;45.192;5.722;2023-07-28T08:46:57;6.20;4.80;4.00
62547;PMS7003;48602;45.192;5.722;2023-07-28T08:49:22;7.00;7.00;6.00
62547;PMS7003;48602;45.192;5.722;2023-07-28T08:51:49;4.25;4.25;4.00
62547;PMS7003;48602;45.192;5.722;2023-07-28T08:54:15;6.00;4.20;4.00
62547;PMS7003;48602;45.192;5.722;2023-07-28T08:56:42;6.50;5.25;4.75
62547;PMS7003;48602;45.192;5.722;2023-07-28T08:59:08;4.80;4.60;4.00
62547;PMS7003;48602;45.192;5.722;2023-07-28T09:01:38;5.00;5.00;4.20
62547;PMS7003;48602;45.192;5.722;2023-07-28T09:04:09;4.00;4.00;3.00
62547;PMS7003;48602;45.192;5.722;2023-07-28T09:06:37;7.80;6.00;5.60
62547;PMS7003;48602;45.192;5.722;2023-07-28T09:09:06;6.75;4.00;3.00
62547;PMS7003;48602;45.192;5.722;2023-07-28T09:11:32;4.40;3.00;2.80
62547;PMS7003;48602;45.192;5.722;2023-07-28T09:13:59;4.50;4.00;3.25
62547;PMS7003;48602;45.192;5.722;2023-07-28T09:16:25;4.20;4.20;3.60
62547;PMS7003;48602;45.192;5.722;2023-07-28T09:18:51;5.00;5.00;3.50
62547;PMS7003;48602;45.192;5.722;2023-07-28T09:21:30;4.40;4.40;4.00
62547;PMS7003;48602;45.192;5.722;2023-07-28T09:23:55;4.00;4.00;3.75
62547;PMS7003;48602;45.192;5.722;2023-07-28T09:26:20;5.00;5.00;4.25
62547;PMS7003;48602;45.192;5.722;2023-07-28T09:28:46;6.25;4.50;4.00
62547;PMS7003;48602;45.192;5.722;2023-07-28T09:31:11;4.00;3.75;3.00
62547;PMS7003;48602;45.192;5.722;2023-07-28T09:33:37;4.00;4.00;3.50
62547;PMS7003;48602;45.192;5.722;2023-07-28T09:36:11;2.80;2.80;2.80
62547;PMS7003;48602;45.192;5.722;2023-07-28T09:38:41;3.40;3.40;2.80
62547;PMS7003;48602;45.192;5.722;2023-07-28T09:41:07;4.00;4.00;3.80
62547;PMS7003;48602;45.192;5.722;2023-07-28T09:43:38;4.80;4.40;3.80
62547;PMS7003;48602;45.192;5.722;2023-07-28T09:46:06;4.80;4.60;4.00
62547;PMS7003;48602;45.192;5.722;2023-07-28T09:48:33;3.20;3.20;3.00
62547;PMS7003;48602;45.192;5.722;2023-07-28T09:51:11;5.00;4.00;3.80
62547;PMS7003;48602;45.192;5.722;2023-07-28T09:53:46;5.00;4.40;3.80
62547;PMS7003;48602;45.192;5.722;2023-07-28T09:56:15;4.80;4.80;4.20
62547;PMS7003;48602;45.192;5.722;2023-07-28T09:58:46;5.00;4.20;3.80
62547;PMS7003;48602;45.192;5.722;2023-07-28T10:01:15;5.60;4.20;4.00
62547;PMS7003;48602;45.192;5.722;2023-07-28T10:03:41;3.25;3.25;3.25
62547;PMS7003;48602;45.192;5.722;2023-07-28T10:06:07;4.60;4.60;3.60
62547;PMS7003;48602;45.192;5.722;2023-07-28T10:08:33;5.00;4.75;3.75
62547;PMS7003;48602;45.192;5.722;2023-07-28T10:10:58;4.25;4.25;4.00
62547;PMS7003;48602;45.192;5.722;2023-07-28T10:13:24;4.40;4.40;3.80
62547;PMS7003;48602;45.192;5.722;2023-07-28T10:15:52;4.60;3.60;3.40
62547;PMS7003;48602;45.192;5.722;2023-07-28T10:18:19;4.50;3.75;3.25
62547;PMS7003;48602;45.192;5.722;2023-07-28T10:20:47;5.20;5.20;4.00
62547;PMS7003;48602;45.192;5.722;2023-07-28T10:23:19;5.40;5.40;4.20
62547;PMS7003;48602;45.192;5.722;2023-07-28T10:25:46;6.80;5.80;4.80
62547;PMS7003;48602;45.192;5.722;2023-07-28T10:28:29;4.80;4.80;4.00
62547;PMS7003;48602;45.192;5.722;2023-07-28T10:30:57;4.80;4.80;4.40
62547;PMS7003;48602;45.192;5.722;2023-07-28T10:33:36;4.80;3.40;2.40
62547;PMS7003;48602;45.192;5.722;2023-07-28T10:36:17;5.20;3.80;3.40
62547;PMS7003;48602;45.192;5.722;2023-07-28T10:39:16;4.00;4.00;3.00
62547;PMS7003;48602;45.192;5.722;2023-07-28T10:44:30;1.80;1.80;1.40
62547;PMS7003;48602;45.192;5.722;2023-07-28T10:46:56;5.25;5.00;4.00
62547;PMS7003;48602;45.192;5.722;2023-07-28T10:49:21;3.00;3.00;2.00
62547;PMS7003;48602;45.192;5.722;2023-07-28T10:51:49;4.20;4.20;3.40
62547;PMS7003;48602;45.192;5.722;2023-07-28T10:54:14;3.50;3.50;3.00
62547;PMS7003;48602;45.192;5.722;2023-07-28T10:56:42;3.60;3.60;3.60
62547;PMS7003;48602;45.192;5.722;2023-07-28T10:59:08;4.00;4.00;3.25
62547;PMS7003;48602;45.192;5.722;2023-07-28T11:01:34;5.00;5.00;3.50
62547;PMS7003;48602;45.192;5.722;2023-07-28T11:04:09;4.60;4.60;4.00
62547;PMS7003;48602;45.192;5.722;2023-07-28T11:06:46;4.40;3.40;2.60
62547;PMS7003;48602;45.192;5.722;2023-07-28T11:09:13;1.00;0.80;0.60
62547;PMS7003;48602;45.192;5.722;2023-07-28T11:11:41;3.80;3.60;3.00
62547;PMS7003;48602;45.192;5.722;2023-07-28T11:14:07;6.40;2.60;1.80
62547;PMS7003;48602;45.192;5.722;2023-07-28T11:16:35;4.40;3.40;2.20
62547;PMS7003;48602;45.192;5.722;2023-07-28T11:19:03;3.00;3.00;2.80
62547;PMS7003;48602;45.192;5.722;2023-07-28T11:21:36;4.00;4.00;4.00
62547;PMS7003;48602;45.192;5.722;2023-07-28T11:24:02;3.00;3.00;2.60
62547;PMS7003;48602;45.192;5.722;2023-07-28T11:26:28;4.50;3.75;3.50
62547;PMS7003;48602;45.192;5.722;2023-07-28T11:28:54;3.25;3.25;3.00
62547;PMS7003;48602;45.192;5.722;2023-07-28T11:31:22;4.75;3.50;2.50
62547;PMS7003;48602;45.192;5.722;2023-07-28T11:33:50;3.80;3.80;3.20
62547;PMS7003;48602;45.192;5.722;2023-07-28T11:36:21;5.00;3.50;3.00
62547;PMS7003;48602;45.192;5.722;2023-07-28T11:38:51;5.60;4.60;3.20
62547;PMS7003;48602;45.192;5.722;2023-07-28T11:41:18;6.00;4.20;4.20
62547;PMS7003;48602;45.192;5.722;2023-07-28T11:43:45;5.40;4.40;3.40
62547;PMS7003;48602;45.192;5.722;2023-07-28T11:49:11;5.40;5.00;4.20
62547;PMS7003;48602;45.192;5.722;2023-07-28T11:51:43;4.80;4.40;3.80
62547;PMS7003;48602;45.192;5.722;2023-07-28T11:54:13;4.80;4.80;4.20
62547;PMS7003;48602;45.192;5.722;2023-07-28T11:56:45;5.00;4.40;4.00
62547;PMS7003;48602;45.192;5.722;2023-07-28T11:59:11;2.60;2.00;2.00
62547;PMS7003;48602;45.192;5.722;2023-07-28T12:04:24;3.20;3.20;2.80
62547;PMS7003;48602;45.192;5.722;2023-07-28T12:07:00;2.80;2.80;2.40
62547;PMS7003;48602;45.192;5.722;2023-07-28T12:09:53;3.80;3.80;3.00
62547;PMS7003;48602;45.192;5.722;2023-07-28T12:12:28;3.60;3.60;3.00
62547;PMS7003;48602;45.192;5.722;2023-07-28T12:14:55;5.00;4.00;3.00
62547;PMS7003;48602;45.192;5.722;2023-07-28T12:17:24;4.20;4.20;3.80
62547;PMS7003;48602;45.192;5.722;2023-07-28T12:22:40;3.60;3.60;3.40
62547;PMS7003;48602;45.192;5.722;2023-07-28T12:25:09;4.20;3.60;3.00
62547;PMS7003;48602;45.192;5.722;2023-07-28T12:27:35;5.40;4.20;3.40
62547;PMS7003;48602;45.192;5.722;2023-07-28T12:30:02;4.60;2.60;2.00
62547;PMS7003;48602;45.192;5.722;2023-07-28T12:32:28;0.60;0.60;0.00
62547;PMS7003;48602;45.192;5.722;2023-07-28T12:34:53;6.25;3.50;2.50
62547;PMS7003;48602;45.192;5.722;2023-07-28T12:37:19;5.00;4.00;3.75
62547;PMS7003;48602;45.192;5.722;2023-07-28T12:39:45;3.50;3.00;3.00
62547;PMS7003;48602;45.192;5.722;2023-07-28T12:42:11;5.60;5.40;3.80
62547;PMS7003;48602;45.192;5.722;2023-07-28T12:44:37;5.40;4.20;3.00
62547;PMS7003;48602;45.192;5.722;2023-07-28T12:47:03;4.20;4.20;3.40
62547;PMS7003;48602;45.192;5.722;2023-07-28T12:49:29;4.25;4.25;3.75
62547;PMS7003;48602;45.192;5.722;2023-07-28T12:51:56;4.60;4.00;3.40
62547;PMS7003;48602;45.192;5.722;2023-07-28T12:54:25;4.60;4.60;3.60
62547;PMS7003;48602;45.192;5.722;2023-07-28T12:56:53;4.80;4.60;4.00
62547;PMS7003;48602;45.192;5.722;2023-07-28T12:59:19;4.80;3.60;2.80
62547;PMS7003;48602;45.192;5.722;2023-07-28T13:01:44;6.50;5.00;3.75
62547;PMS7003;48602;45.192;5.722;2023-07-28T13:04:10;4.80;4.80;3.80
62547;PMS7003;48602;45.192;5.722;2023-07-28T13:06:36;4.25;4.25;3.50
62547;PMS7003;48602;45.192;5.722;2023-07-28T13:09:02;2.00;1.50;1.25
62547;PMS7003;48602;45.192;5.722;2023-07-28T13:11:28;6.60;5.20;3.00
62547;PMS7003;48602;45.192;5.722;2023-07-28T13:13:54;4.25;4.00;3.50
62547;PMS7003;48602;45.192;5.722;2023-07-28T13:16:20;5.00;4.25;3.50
62547;PMS7003;48602;45.192;5.722;2023-07-28T13:18:46;3.80;3.40;2.80
62547;PMS7003;48602;45.192;5.722;2023-07-28T13:21:11;5.75;5.00;4.00
62547;PMS7003;48602;45.192;5.722;2023-07-28T13:23:37;5.50;5.00;4.00
62547;PMS7003;48602;45.192;5.722;2023-07-28T13:26:03;4.40;4.40;3.40
62547;PMS7003;48602;45.192;5.722;2023-07-28T13:28:32;3.40;3.40;2.40
62547;PMS7003;48602;45.192;5.722;2023-07-28T13:31:00;4.00;4.00;2.60
62547;PMS7003;48602;45.192;5.722;2023-07-28T13:33:29;4.80;3.00;3.00
62547;PMS7003;48602;45.192;5.722;2023-07-28T13:35:55;4.25;4.25;3.25
62547;PMS7003;48602;45.192;5.722;2023-07-28T13:38:21;4.00;4.00;3.80
62547;PMS7003;48602;45.192;5.722;2023-07-28T13:40:47;5.00;5.00;4.00
62547;PMS7003;48602;45.192;5.722;2023-07-28T13:43:12;4.00;4.00;4.00
62547;PMS7003;48602;45.192;5.722;2023-07-28T13:45:38;3.00;3.00;2.00
62547;PMS7003;48602;45.192;5.722;2023-07-28T13:48:03;3.00;3.00;2.75
62547;PMS7003;48602;45.192;5.722;2023-07-28T13:50:29;8.00;5.75;5.00
62547;PMS7003;48602;45.192;5.722;2023-07-28T13:52:54;4.00;4.00;4.00
62547;PMS7003;48602;45.192;5.722;2023-07-28T13:55:20;2.00;2.00;2.00
62547;PMS7003;48602;45.192;5.722;2023-07-28T13:57:45;7.25;7.25;5.00
62547;PMS7003;48602;45.192;5.722;2023-07-28T14:00:11;3.50;3.50;3.00
62547;PMS7003;48602;45.192;5.722;2023-07-28T14:02:37;3.40;3.40;2.40
62547;PMS7003;48602;45.192;5.722;2023-07-28T14:05:04;7.40;5.20;4.00
62547;PMS7003;48602;45.192;5.722;2023-07-28T14:07:30;2.60;2.40;2.00
62547;PMS7003;48602;45.192;5.722;2023-07-28T14:09:56;4.75;3.00;2.00
62547;PMS7003;48602;45.192;5.722;2023-07-28T14:12:22;5.25;4.50;4.50
62547;PMS7003;48602;45.192;5.722;2023-07-28T14:14:47;5.00;5.00;4.75
62547;PMS7003;48602;45.192;5.722;2023-07-28T14:17:14;6.20;5.00;4.00
62547;PMS7003;48602;45.192;5.722;2023-07-28T14:19:40;5.00;5.00;4.00
62547;PMS7003;48602;45.192;5.722;2023-07-28T14:22:06;3.00;2.75;2.00
62547;PMS7003;48602;45.192;5.722;2023-07-28T14:24:31;2.25;1.50;1.00
62547;PMS7003;48602;45.192;5.722;2023-07-28T14:26:57;5.75;4.00;3.75
62547;PMS7003;48602;45.192;5.722;2023-07-28T14:29:22;5.00;5.00;4.25
62547;PMS7003;48602;45.192;5.722;2023-07-28T14:31:48;4.75;4.75;3.75
62547;PMS7003;48602;45.192;5.722;2023-07-28T14:34:14;7.75;6.00;5.00